Time;durP1;ratioP1;P1;durP2;ratioP2;P2;SDS_P1;SDS_P2;PMS_P1;PMS_P2;Temp;Humidity;BMP_temperature;BMP_pressure;BME280_temperature;BME280_humidity;BME280_pressure;Samples;Min_cycle;Max_cycle;Signal;HPM_P1;HPM_P2
2022/09/24 00:00:43;;;;;;;22.33;20.20;;;;;;;12.23;100.00;96463.91;4977240;28;20614;-78
2022/09/24 00:03:08;;;;;;;23.87;21.77;;;;;;;12.52;100.00;96462.69;4977404;28;20689;-78
2022/09/24 00:05:40;;;;;;;20.33;18.43;;;;;;;12.43;100.00;96459.66;4977586;28;20188;-78
2022/09/24 00:08:06;;;;;;;20.33;18.57;;;;;;;12.48;100.00;96451.06;4977008;28;20192;-77
2022/09/24 00:10:40;;;;;;;33.80;31.27;;;;;;;12.37;100.00;96442.25;4959724;28;20188;-77
2022/09/24 00:13:07;;;;;;;31.63;29.30;;;;;;;12.49;100.00;96444.75;4976767;28;20177;-76
2022/09/24 00:15:40;;;;;;;29.77;27.43;;;;;;;12.25;100.00;96441.63;4976882;28;20199;-76
2022/09/24 00:18:06;;;;;;;36.03;33.37;;;;;;;12.17;100.00;96449.91;4976635;28;20213;-77
2022/09/24 00:20:35;;;;;;;36.57;33.77;;;;;;;12.20;100.00;96446.81;4975999;28;20185;-76
2022/09/24 00:23:01;;;;;;;43.23;40.03;;;;;;;12.26;100.00;96437.91;4976787;28;20185;-77
2022/09/24 00:28:12;;;;;;;46.10;43.13;;;;;;;12.18;100.00;96443.63;4976597;28;20247;-77
2022/09/24 00:30:42;;;;;;;51.73;48.33;;;;;;;12.24;100.00;96429.50;4976177;28;20715;-76
2022/09/24 00:33:09;;;;;;;41.83;39.07;;;;;;;12.26;100.00;96427.41;4976593;28;20236;-76
2022/09/24 00:35:36;;;;;;;33.80;31.40;;;;;;;12.15;100.00;96436.22;4976484;28;20275;-76
2022/09/24 00:38:01;;;;;;;25.10;22.70;;;;;;;12.11;100.00;96432.50;4976479;28;20256;-76
2022/09/24 00:40:31;;;;;;;21.33;19.53;;;;;;;11.99;100.00;96432.63;4976462;28;20676;-76
2022/09/24 00:42:57;;;;;;;20.93;19.07;;;;;;;12.13;100.00;96425.19;4977010;28;20184;-77
2022/09/24 00:45:24;;;;;;;19.87;17.73;;;;;;;11.99;100.00;96423.94;4976881;28;20505;-78
2022/09/24 00:47:51;;;;;;;20.33;18.33;;;;;;;12.04;100.00;96430.03;4976987;28;20200;-76
2022/09/24 00:50:28;;;;;;;20.40;18.60;;;;;;;12.04;100.00;96424.78;4976414;28;20181;-77
2022/09/24 00:53:02;;;;;;;20.20;18.27;;;;;;;12.05;100.00;96418.50;4958233;28;20192;-77
2022/09/24 00:55:28;;;;;;;20.20;18.40;;;;;;;12.02;100.00;96405.06;4976069;28;20177;-77
2022/09/24 00:57:59;;;;;;;19.27;17.33;;;;;;;12.23;100.00;96411.34;4976359;28;20287;-77
2022/09/24 01:00:25;;;;;;;19.90;18.17;;;;;;;12.06;100.00;96401.72;4975704;28;20645;-76
2022/09/24 01:02:57;;;;;;;20.60;18.80;;;;;;;12.01;100.00;96399.03;4975665;28;20200;-77
2022/09/24 01:05:22;;;;;;;20.20;18.57;;;;;;;12.08;100.00;96396.22;4975986;28;20181;-76
2022/09/24 01:07:48;;;;;;;21.53;19.63;;;;;;;12.09;100.00;96393.31;4958764;28;20197;-78
2022/09/24 01:10:46;;;;;;;21.93;20.03;;;;;;;11.96;100.00;96395.53;4976274;28;20239;-77
2022/09/24 01:13:14;;;;;;;23.07;21.27;;;;;;;11.86;100.00;96398.84;4975460;28;20270;-77
2022/09/24 01:15:47;;;;;;;27.83;25.60;;;;;;;11.80;100.00;96396.41;4976586;28;20200;-77
2022/09/24 01:18:30;;;;;;;29.27;27.07;;;;;;;11.72;100.00;96394.16;4975826;28;20543;-77
2022/09/24 01:21:14;;;;;;;28.97;26.80;;;;;;;11.71;100.00;96387.31;4957742;28;20203;-78
2022/09/24 01:24:02;;;;;;;30.97;28.63;;;;;;;11.85;100.00;96386.75;4975804;28;20184;-76
2022/09/24 01:26:47;;;;;;;31.33;29.10;;;;;;;11.53;100.00;96380.53;4976002;28;20196;-77
2022/09/24 01:29:20;;;;;;;31.77;29.27;;;;;;;11.78;100.00;96383.50;4976163;28;20626;-77
2022/09/24 01:31:52;;;;;;;34.40;31.77;;;;;;;11.61;100.00;96386.16;4959791;28;20221;-76
2022/09/24 01:34:25;;;;;;;34.33;31.53;;;;;;;11.50;100.00;96365.25;4975364;28;20185;-76
2022/09/24 01:36:53;;;;;;;33.20;30.70;;;;;;;11.61;100.00;96369.59;4975386;28;20649;-77
2022/09/24 01:39:19;;;;;;;34.17;31.40;;;;;;;11.59;100.00;96364.59;4975336;28;20189;-77
2022/09/24 01:41:46;;;;;;;32.43;29.93;;;;;;;11.47;100.00;96361.28;4975661;28;20255;-77
2022/09/24 01:44:12;;;;;;;35.27;32.57;;;;;;;11.47;100.00;96358.69;4975140;28;20180;-77
2022/09/24 01:46:39;;;;;;;32.50;30.13;;;;;;;11.46;100.00;96351.03;4975456;28;20207;-77
2022/09/24 01:49:06;;;;;;;33.90;31.60;;;;;;;11.49;100.00;96353.16;4975377;28;20196;-77
2022/09/24 01:51:51;;;;;;;30.47;28.40;;;;;;;11.74;100.00;96355.34;4975152;28;20188;-77
2022/09/24 01:54:28;;;;;;;26.70;24.67;;;;;;;11.47;100.00;96356.06;4975179;28;20185;-75
2022/09/24 01:57:06;;;;;;;21.93;20.23;;;;;;;11.27;100.00;96361.00;4974803;28;20566;-76
2022/09/24 01:59:48;;;;;;;22.90;21.00;;;;;;;11.42;100.00;96345.50;4975189;28;20184;-76
2022/09/24 02:02:21;;;;;;;20.17;18.57;;;;;;;11.27;100.00;96345.25;4974492;28;20657;-77
2022/09/24 02:05:16;;;;;;;23.63;21.57;;;;;;;11.13;100.00;96334.31;4974353;28;20215;-76
2022/09/24 02:08:00;;;;;;;29.00;26.77;;;;;;;11.09;100.00;96335.06;4974254;28;20211;-76
2022/09/24 02:10:30;;;;;;;35.60;32.97;;;;;;;11.05;100.00;96333.91;4975232;28;20177;-77
2022/09/24 02:13:00;;;;;;;42.53;39.43;;;;;;;11.03;100.00;96336.81;4974790;28;20287;-77
2022/09/24 02:15:30;;;;;;;44.27;41.27;;;;;;;11.09;100.00;96337.69;4974332;28;20275;-78
2022/09/24 02:17:58;;;;;;;43.07;40.10;;;;;;;11.24;100.00;96343.94;4974189;28;20258;-77
2022/09/24 02:20:26;;;;;;;51.30;47.60;;;;;;;11.21;100.00;96336.53;4974249;28;20251;-77
2022/09/24 02:22:54;;;;;;;57.63;53.90;;;;;;;11.37;100.00;96342.00;4974780;28;20271;-77
2022/09/24 02:25:26;;;;;;;58.33;54.33;;;;;;;11.16;100.00;96340.91;4974833;28;20242;-76
2022/09/24 02:27:52;;;;;;;62.83;58.80;;;;;;;11.03;100.00;96351.75;4974329;28;20184;-77
2022/09/24 02:30:17;;;;;;;66.50;62.40;;;;;;;11.00;100.00;96352.22;4974338;28;20197;-77
2022/09/24 02:32:43;;;;;;;61.93;57.83;;;;;;;11.31;100.00;96345.59;4973843;28;20236;-77
2022/09/24 02:35:11;;;;;;;52.53;48.97;;;;;;;11.13;100.00;96344.81;4937341;29;20228;-78
2022/09/24 02:37:39;;;;;;;37.17;34.43;;;;;;;11.16;100.00;96336.44;4971362;28;20291;-78
2022/09/24 02:40:08;;;;;;;26.67;24.43;;;;;;;11.07;100.00;96321.38;4958691;28;20275;-77
2022/09/24 02:42:33;;;;;;;24.20;22.17;;;;;;;10.95;100.00;96313.59;4974403;28;20181;-77
2022/09/24 02:44:59;;;;;;;21.77;19.97;;;;;;;11.02;100.00;96314.22;4974385;28;20218;-77
2022/09/24 02:47:26;;;;;;;24.03;22.00;;;;;;;11.06;100.00;96322.41;4974019;28;20679;-77
2022/09/24 02:49:51;;;;;;;25.20;23.17;;;;;;;11.09;100.00;96324.56;4958737;28;20181;-77
2022/09/24 02:52:17;;;;;;;30.07;27.67;;;;;;;11.11;100.00;96330.34;4974285;28;20692;-77
2022/09/24 02:54:43;;;;;;;34.17;31.53;;;;;;;11.11;100.00;96332.97;4974047;28;20184;-77
2022/09/24 02:57:09;;;;;;;33.23;30.70;;;;;;;11.17;100.00;96337.25;4974496;28;20796;-77
2022/09/24 02:59:34;;;;;;;30.20;27.77;;;;;;;11.37;100.00;96337.53;4974833;28;20228;-78
2022/09/24 03:02:00;;;;;;;24.73;22.47;;;;;;;11.33;100.00;96333.81;4974653;28;20196;-77
2022/09/24 03:04:25;;;;;;;23.60;21.70;;;;;;;11.34;100.00;96332.78;4974497;28;20196;-77
2022/09/24 03:06:51;;;;;;;23.50;21.57;;;;;;;11.19;100.00;96325.50;4974143;28;20242;-77
2022/09/24 03:09:16;;;;;;;25.50;23.33;;;;;;;11.23;100.00;96318.72;4974322;28;20185;-76
2022/09/24 03:11:41;;;;;;;34.43;31.73;;;;;;;11.49;100.00;96319.84;4973703;28;20205;-76
2022/09/24 03:14:07;;;;;;;36.50;34.00;;;;;;;11.33;100.00;96318.06;4973500;28;20263;-77
2022/09/24 03:16:32;;;;;;;48.73;45.37;;;;;;;11.41;100.00;96315.03;4974279;28;20291;-77
2022/09/24 03:18:58;;;;;;;65.07;61.00;;;;;;;11.42;100.00;96303.50;4973776;28;20187;-76
2022/09/24 03:21:23;;;;;;;51.20;47.87;;;;;;;11.48;100.00;96304.38;4973792;28;20212;-77
2022/09/24 03:23:49;;;;;;;33.10;30.70;;;;;;;11.54;100.00;96314.66;4973964;28;20255;-76
2022/09/24 03:26:16;;;;;;;21.27;19.37;;;;;;;11.42;100.00;96306.13;4973982;28;20196;-76
2022/09/24 03:28:41;;;;;;;16.53;14.93;;;;;;;11.45;100.00;96308.25;4973901;28;20672;-77
2022/09/24 03:31:07;;;;;;;17.60;15.70;;;;;;;11.47;100.00;96311.44;4956000;28;20224;-77
2022/09/24 03:33:38;;;;;;;20.27;18.27;;;;;;;11.47;100.00;96308.81;4973963;28;20216;-76
2022/09/24 03:36:06;;;;;;;22.60;20.60;;;;;;;11.48;100.00;96302.50;4970435;28;20197;-78
2022/09/24 03:38:32;;;;;;;22.17;20.10;;;;;;;11.42;100.00;96300.88;4973992;28;20208;-77
2022/09/24 03:40:59;;;;;;;22.33;20.57;;;;;;;11.43;100.00;96299.03;4973876;28;20263;-77
2022/09/24 03:43:25;;;;;;;23.60;21.77;;;;;;;11.42;100.00;96294.84;4956606;28;20188;-77
2022/09/24 03:45:51;;;;;;;26.83;24.27;;;;;;;11.46;100.00;96293.31;4973398;28;20267;-76
2022/09/24 03:48:18;;;;;;;26.80;24.67;;;;;;;11.68;100.00;96291.47;4956228;28;20626;-77
2022/09/24 03:50:45;;;;;;;29.17;26.83;;;;;;;11.73;100.00;96286.31;4973827;28;20267;-77
2022/09/24 03:53:11;;;;;;;29.10;26.80;;;;;;;11.91;100.00;96287.81;4973721;28;20265;-77
2022/09/24 03:55:45;;;;;;;27.17;24.93;;;;;;;11.60;100.00;96287.44;4973903;28;20227;-77
2022/09/24 03:58:11;;;;;;;25.13;23.03;;;;;;;11.43;100.00;96291.16;4973402;28;20246;-76
2022/09/24 04:00:38;;;;;;;24.50;22.57;;;;;;;11.52;100.00;96294.94;4973202;28;20518;-76
2022/09/24 04:03:04;;;;;;;24.33;22.40;;;;;;;11.54;100.00;96300.72;4973554;28;20673;-77
2022/09/24 04:05:30;;;;;;;21.50;19.47;;;;;;;11.51;100.00;96296.78;4973264;28;20196;-77
2022/09/24 04:07:56;;;;;;;19.47;17.77;;;;;;;11.54;100.00;96298.91;4973295;28;20234;-77
2022/09/24 04:10:24;;;;;;;21.03;19.13;;;;;;;11.43;100.00;96293.78;4973908;28;20216;-78
2022/09/24 04:12:51;;;;;;;34.53;32.23;;;;;;;11.36;100.00;96296.59;4973398;28;20192;-76
2022/09/24 04:15:20;;;;;;;39.93;37.37;;;;;;;11.15;100.00;96298.13;4973677;28;20201;-77
2022/09/24 04:17:53;;;;;;;40.83;37.87;;;;;;;11.30;100.00;96289.69;4973481;28;20236;-77
2022/09/24 04:20:22;;;;;;;43.37;40.47;;;;;;;11.25;100.00;96285.19;4960513;28;20235;-77
2022/09/24 04:22:53;;;;;;;43.53;40.57;;;;;;;11.32;100.00;96282.34;4973535;28;20276;-76
2022/09/24 04:25:18;;;;;;;51.13;48.00;;;;;;;11.35;100.00;96281.88;4973446;28;20607;-78
2022/09/24 04:27:44;;;;;;;51.57;48.00;;;;;;;11.22;100.00;96275.16;4975871;28;20227;-77
2022/09/24 04:30:13;;;;;;;51.57;48.33;;;;;;;11.32;100.00;96289.44;4976543;28;20212;-78
2022/09/24 04:32:40;;;;;;;50.53;46.93;;;;;;;11.32;100.00;96287.59;4976416;28;20689;-77
2022/09/24 04:35:06;;;;;;;34.17;31.67;;;;;;;11.28;100.00;96289.13;4976189;28;20188;-77
2022/09/24 04:37:31;;;;;;;19.57;18.00;;;;;;;11.25;100.00;96282.56;4976650;28;20204;-77
2022/09/24 04:39:56;;;;;;;28.03;26.07;;;;;;;11.20;100.00;96284.31;4976433;28;20196;-76
2022/09/24 04:42:22;;;;;;;46.77;43.67;;;;;;;11.17;100.00;96282.16;4976495;28;20221;-76
2022/09/24 04:44:47;;;;;;;41.47;38.70;;;;;;;11.17;100.00;96275.09;4976915;28;20349;-77
2022/09/24 04:47:13;;;;;;;32.13;29.97;;;;;;;11.18;100.00;96270.66;4976897;28;20195;-77
2022/09/24 04:49:44;;;;;;;26.87;24.93;;;;;;;11.19;100.00;96265.16;4976780;28;20208;-76
2022/09/24 04:52:16;;;;;;;22.70;20.90;;;;;;;11.32;100.00;96273.69;4976395;28;20184;-78
2022/09/24 04:54:45;;;;;;;18.77;17.13;;;;;;;11.28;100.00;96276.03;4976099;28;20187;-77
2022/09/24 04:57:15;;;;;;;20.60;18.77;;;;;;;11.37;100.00;96266.69;4976421;28;20208;-77
2022/09/24 04:59:41;;;;;;;24.20;22.43;;;;;;;11.33;100.00;96264.78;4977173;28;20603;-77
2022/09/24 05:02:07;;;;;;;33.60;31.20;;;;;;;11.26;100.00;96270.22;4976019;28;20184;-77
2022/09/24 05:04:34;;;;;;;43.13;40.13;;;;;;;11.22;100.00;96269.13;4976318;28;20220;-77
2022/09/24 05:06:59;;;;;;;48.43;45.20;;;;;;;10.89;100.00;96272.59;4976332;28;20185;-77
2022/09/24 05:09:25;;;;;;;49.40;45.50;;;;;;;10.74;100.00;96275.81;4976056;28;20645;-76
2022/09/24 05:11:50;;;;;;;47.30;44.00;;;;;;;10.67;100.00;96275.16;4976384;28;20185;-77
2022/09/24 05:14:16;;;;;;;44.70;41.57;;;;;;;10.81;100.00;96280.91;4976453;28;20192;-78
2022/09/24 05:16:41;;;;;;;38.93;35.47;;;;;;;10.84;100.00;96281.19;4975547;28;20288;-76
2022/09/24 05:19:06;;;;;;;34.23;31.63;;;;;;;10.87;100.00;96285.16;4976694;28;20227;-76
2022/09/24 05:21:32;;;;;;;32.53;30.17;;;;;;;10.83;100.00;96279.59;4975479;28;20653;-76
2022/09/24 05:23:57;;;;;;;34.13;31.73;;;;;;;10.84;100.00;96281.19;4976146;28;20267;-77
2022/09/24 05:29:06;;;;;;;27.03;24.93;;;;;;;10.86;100.00;96282.78;4975916;28;20176;-77
2022/09/24 05:31:32;;;;;;;28.43;26.37;;;;;;;10.72;100.00;96290.97;4975315;28;20220;-77
2022/09/24 05:33:57;;;;;;;31.03;28.73;;;;;;;10.81;100.00;96294.78;4975840;28;20255;-77
2022/09/24 05:36:22;;;;;;;38.60;35.83;;;;;;;10.73;100.00;96289.16;4975385;28;20691;-76
2022/09/24 05:38:48;;;;;;;43.13;40.20;;;;;;;10.91;100.00;96295.97;4975263;28;20239;-77
2022/09/24 05:41:13;;;;;;;46.10;43.17;;;;;;;11.21;100.00;96299.78;4975544;28;20192;-77
2022/09/24 05:43:39;;;;;;;38.87;36.07;;;;;;;11.00;100.00;96291.91;4975556;28;20181;-77
2022/09/24 05:46:06;;;;;;;34.57;32.03;;;;;;;11.10;100.00;96299.91;4958247;28;20672;-78
2022/09/24 05:48:32;;;;;;;23.77;21.97;;;;;;;11.19;100.00;96301.09;4975565;28;20238;-77
2022/09/24 05:51:00;;;;;;;19.87;17.97;;;;;;;10.67;100.00;96306.63;4975568;28;20279;-76
2022/09/24 05:53:25;;;;;;;18.17;16.60;;;;;;;10.98;100.00;96307.09;4975455;28;20286;-78
2022/09/24 05:55:50;;;;;;;18.17;16.70;;;;;;;10.73;100.00;96310.91;4975473;28;20572;-78
2022/09/24 05:58:17;;;;;;;18.53;16.93;;;;;;;10.76;100.00;96310.41;4975321;28;20204;-77
2022/09/24 06:00:42;;;;;;;20.63;19.03;;;;;;;10.60;100.00;96311.22;4974930;28;20657;-77
2022/09/24 06:03:13;;;;;;;39.33;36.80;;;;;;;10.65;100.00;96306.06;4975073;28;20200;-77
2022/09/24 06:05:43;;;;;;;145.83;136.30;;;;;;;10.73;100.00;96305.66;4974651;28;20240;-74
2022/09/24 06:08:08;;;;;;;37.13;34.80;;;;;;;10.81;100.00;96307.13;4974633;28;20227;-72
2022/09/24 06:10:35;;;;;;;23.53;21.53;;;;;;;11.07;100.00;96311.69;4974915;28;20215;-71
2022/09/24 06:13:00;;;;;;;20.73;19.07;;;;;;;11.38;100.00;96299.75;4974849;28;20601;-74
2022/09/24 06:15:26;;;;;;;21.97;20.33;;;;;;;11.44;100.00;96308.47;4974795;28;20187;-74
2022/09/24 06:17:54;;;;;;;20.03;18.53;;;;;;;11.01;100.00;96309.22;4974546;28;20215;-73
2022/09/24 06:20:20;;;;;;;14.53;13.20;;;;;;;11.25;100.00;96316.66;4974015;28;20203;-75
2022/09/24 06:22:46;;;;;;;17.70;14.70;;;;;;;11.17;100.00;96311.03;4974728;28;20234;-78
2022/09/24 06:25:12;;;;;;;18.80;17.10;;;;;;;11.16;100.00;96315.47;4974487;28;20197;-76
2022/09/24 06:27:37;;;;;;;19.23;17.43;;;;;;;11.46;100.00;96316.91;4974642;28;20196;-73
2022/09/24 06:30:03;;;;;;;24.43;22.67;;;;;;;11.78;100.00;96315.25;4974371;28;20203;-73
2022/09/24 06:32:29;;;;;;;32.57;30.33;;;;;;;11.65;100.00;96318.19;4973326;28;20228;-73
2022/09/24 06:34:54;;;;;;;41.30;38.60;;;;;;;11.35;100.00;96323.88;4972433;28;20223;-73
2022/09/24 06:37:19;;;;;;;41.13;38.50;;;;;;;11.42;100.00;96331.56;4956240;28;20542;-75
2022/09/24 06:39:45;;;;;;;22.03;20.23;;;;;;;11.46;100.00;96333.47;4956909;28;20199;-75
2022/09/24 06:42:11;;;;;;;14.37;13.17;;;;;;;11.54;100.00;96326.97;4973602;28;20264;-73
2022/09/24 06:44:36;;;;;;;15.23;13.97;;;;;;;11.76;100.00;96334.91;4974272;28;20642;-75
2022/09/24 06:47:01;;;;;;;19.50;18.00;;;;;;;11.79;100.00;96345.72;4974204;28;20189;-68
2022/09/24 06:49:28;;;;;;;16.67;15.10;;;;;;;11.61;100.00;96333.66;4973015;28;20197;-71
2022/09/24 06:51:53;;;;;;;19.60;18.00;;;;;;;12.10;100.00;96341.59;4973961;28;20192;-70
2022/09/24 06:54:19;;;;;;;15.73;14.40;;;;;;;11.86;100.00;96340.28;4974350;28;20196;-73
2022/09/24 06:56:45;;;;;;;32.57;30.20;;;;;;;12.08;100.00;96339.22;4973813;28;20287;-72
2022/09/24 06:59:11;;;;;;;44.33;41.37;;;;;;;12.16;100.00;96334.56;4974109;28;20696;-72
2022/09/24 07:01:36;;;;;;;45.90;43.10;;;;;;;12.14;100.00;96337.44;4974134;28;20195;-72
2022/09/24 07:04:01;;;;;;;43.40;40.57;;;;;;;12.12;100.00;96336.88;4973267;28;20180;-72
2022/09/24 07:07:28;;;;;;;34.50;32.20;;;;;;;12.23;100.00;96338.56;4973442;28;20185;-72
2022/09/24 07:09:12;;;;;;;31.30;29.27;;;;;;;12.31;100.00;96342.59;4973478;28;20209;-74
2022/09/24 07:11:38;;;;;;;34.97;32.67;;;;;;;12.49;100.00;96344.88;4973682;28;20192;-74
2022/09/24 07:14:03;;;;;;;34.80;32.53;;;;;;;12.50;100.00;96347.25;4956206;28;20191;-73
2022/09/24 07:16:29;;;;;;;25.93;23.83;;;;;;;12.64;100.00;96344.22;4973414;28;20180;-72
2022/09/24 07:18:54;;;;;;;20.30;18.73;;;;;;;12.62;100.00;96341.03;4973078;28;20184;-73
2022/09/24 07:21:19;;;;;;;17.17;15.63;;;;;;;12.76;100.00;96353.50;4973789;28;20188;-71
2022/09/24 07:23:46;;;;;;;14.67;13.57;;;;;;;12.88;100.00;96351.50;4973751;28;20180;-70
2022/09/24 07:26:11;;;;;;;14.30;13.07;;;;;;;12.97;100.00;96362.38;4973529;28;20237;-70
2022/09/24 07:28:36;;;;;;;18.37;16.67;;;;;;;12.98;100.00;96366.59;4973291;28;20597;-71
2022/09/24 07:31:02;;;;;;;20.37;18.87;;;;;;;13.07;100.00;96365.09;4972896;28;20189;-71
2022/09/24 07:33:30;;;;;;;14.53;13.30;;;;;;;13.12;100.00;96366.97;4955520;28;20192;-72
2022/09/24 07:35:55;;;;;;;13.40;12.40;;;;;;;13.28;100.00;96360.78;4973583;28;20279;-70
2022/09/24 07:38:21;;;;;;;14.13;12.83;;;;;;;13.30;100.00;96367.38;4972761;28;20291;-72
2022/09/24 07:40:46;;;;;;;19.63;18.10;;;;;;;13.46;100.00;96368.25;4973696;28;20601;-72
2022/09/24 07:43:12;;;;;;;20.97;19.13;;;;;;;13.37;100.00;96366.38;4973573;28;20180;-72
2022/09/24 07:45:38;;;;;;;19.77;18.17;;;;;;;13.63;100.00;96368.09;4973594;28;20188;-72
2022/09/24 07:48:04;;;;;;;23.20;21.50;;;;;;;13.60;100.00;96376.47;4973309;28;20199;-71
2022/09/24 07:50:32;;;;;;;23.97;22.10;;;;;;;13.63;100.00;96378.63;4972575;28;20481;-72
2022/09/24 07:52:59;;;;;;;23.17;21.27;;;;;;;13.60;100.00;96376.47;4973161;28;20185;-72
2022/09/24 07:55:24;;;;;;;26.03;23.93;;;;;;;13.62;100.00;96377.03;4973617;28;20645;-70
2022/09/24 07:57:52;;;;;;;41.00;38.37;;;;;;;13.88;100.00;96375.31;4973234;28;20232;-72
2022/09/24 08:00:19;;;;;;;42.90;40.23;;;;;;;13.77;100.00;96384.22;4973180;28;20196;-73
2022/09/24 08:02:46;;;;;;;49.67;46.40;;;;;;;13.86;100.00;96383.50;4963718;28;20185;-72
2022/09/24 08:05:14;;;;;;;52.63;49.37;;;;;;;13.98;100.00;96383.28;4968544;28;20638;-71
2022/09/24 08:07:39;;;;;;;48.10;45.03;;;;;;;14.02;100.00;96379.06;4965269;28;20216;-72
2022/09/24 08:10:05;;;;;;;27.40;25.47;;;;;;;14.11;99.58;96377.50;4970937;28;20280;-72
2022/09/24 08:12:30;;;;;;;19.53;18.03;;;;;;;14.21;99.83;96380.16;4976209;28;20189;-71
2022/09/24 08:14:56;;;;;;;17.67;16.27;;;;;;;14.15;100.00;96382.00;4967254;28;20514;-72
2022/09/24 08:17:21;;;;;;;17.13;15.77;;;;;;;14.34;100.00;96378.91;4974230;28;20213;-73
2022/09/24 08:19:47;;;;;;;18.67;17.13;;;;;;;14.45;100.00;96396.34;4963206;28;20217;-74
2022/09/24 08:22:13;;;;;;;37.63;35.20;;;;;;;14.27;100.00;96387.03;4971445;28;20646;-73
2022/09/24 08:24:39;;;;;;;20.73;19.13;;;;;;;14.35;100.00;96391.03;4966786;28;20195;-75
2022/09/24 08:27:05;;;;;;;15.83;14.63;;;;;;;14.62;98.92;96391.66;4976830;28;20192;-71
2022/09/24 08:29:30;;;;;;;15.03;13.83;;;;;;;14.65;98.95;96396.41;4976583;28;20247;-75
2022/09/24 08:31:55;;;;;;;14.93;13.43;;;;;;;14.65;99.13;96396.41;4957933;28;20228;-76
2022/09/24 08:34:21;;;;;;;13.00;12.00;;;;;;;15.09;96.94;96393.28;4976152;28;20192;-76
2022/09/24 08:36:46;;;;;;;12.23;11.23;;;;;;;15.20;95.73;96389.56;4976492;28;20206;-74
2022/09/24 08:39:14;;;;;;;16.67;15.40;;;;;;;15.38;95.21;96391.66;4976158;28;20223;-73
2022/09/24 08:41:54;;;;;;;17.03;15.83;;;;;;;15.30;95.20;96398.28;4976117;28;20653;-74
2022/09/24 08:47:23;;;;;;;31.43;29.57;;;;;;;15.66;92.60;96393.75;4976266;28;20187;-75
2022/09/24 08:50:12;;;;;;;38.97;36.73;;;;;;;15.86;92.08;96395.56;4976163;28;20211;-74
2022/09/24 08:52:55;;;;;;;32.47;30.50;;;;;;;16.05;90.88;96396.53;4961855;28;20169;-80
2022/09/24 08:55:32;;;;;;;80.40;75.60;;;;;;;16.34;87.81;96383.44;4976691;28;20211;-75
2022/09/24 08:58:14;;;;;;;68.10;64.00;;;;;;;16.27;87.84;96387.47;4960117;28;20204;-79
2022/09/24 09:00:49;;;;;;;31.00;28.80;;;;;;;16.43;86.83;96396.91;4976392;28;20184;-72
2022/09/24 09:03:43;;;;;;;26.45;24.52;;;;;;;16.82;85.39;96394.31;4974638;28;20180;-74
2022/09/24 09:06:18;;;;;;;27.20;25.20;;;;;;;16.67;86.87;96395.19;4967191;28;20193;-73
2022/09/24 09:08:54;;;;;;;20.48;18.90;;;;;;;16.12;90.00;96390.97;4969551;28;20179;-74
2022/09/24 09:11:26;;;;;;;18.05;16.75;;;;;;;16.53;88.01;96395.00;4975501;28;20180;-72
2022/09/24 09:13:58;;;;;;;41.72;39.03;;;;;;;16.38;85.93;96400.38;4974561;28;20725;-75
2022/09/24 09:16:28;;;;;;;53.40;50.17;;;;;;;16.61;84.93;96391.00;4964998;28;20189;-69
2022/09/24 09:19:05;;;;;;;52.70;49.73;;;;;;;16.67;85.54;96383.81;4975470;28;20232;-73
2022/09/24 09:21:40;;;;;;;71.50;67.47;;;;;;;16.81;84.60;96396.19;4975473;28;20184;-71
2022/09/24 09:24:15;;;;;;;63.75;60.05;;;;;;;16.74;84.10;96395.69;4975474;28;20234;-74
2022/09/24 09:26:54;;;;;;;43.50;41.00;;;;;;;16.87;84.18;96407.53;4975610;28;20536;-72
2022/09/24 09:29:24;;;;;;;36.75;34.67;;;;;;;17.15;83.25;96404.13;4975084;28;20187;-71
2022/09/24 09:31:58;;;;;;;52.60;49.38;;;;;;;16.98;83.48;96406.38;4957276;28;20228;-71
2022/09/24 09:34:30;;;;;;;44.67;42.22;;;;;;;16.55;86.63;96405.31;4975578;28;20243;-70
2022/09/24 09:37:13;;;;;;;47.70;44.90;;;;;;;16.61;87.19;96397.09;4975254;28;20684;-70
2022/09/24 09:39:58;;;;;;;42.05;39.50;;;;;;;16.33;90.39;96399.63;4975553;28;20191;-73
2022/09/24 09:42:35;;;;;;;40.55;38.28;;;;;;;16.09;92.75;96404.72;4974900;28;20169;-71
2022/09/24 09:45:19;;;;;;;25.85;24.45;;;;;;;16.25;91.76;96398.31;4965906;28;20177;-72
2022/09/24 09:47:48;;;;;;;11.70;10.90;;;;;;;16.20;91.63;96393.84;4969937;28;20177;-74
2022/09/24 09:50:29;;;;;;;12.55;11.48;;;;;;;16.12;92.56;96389.09;4955658;28;20193;-73
2022/09/24 09:52:55;;;;;;;14.27;13.38;;;;;;;15.84;94.89;96392.38;4955585;29;20375;-74
2022/09/24 09:55:48;;;;;;;16.35;15.32;;;;;;;16.20;91.87;96383.28;4955568;29;20215;-72
2022/09/24 09:58:21;;;;;;;13.68;12.68;;;;;;;15.89;94.17;96399.50;4950608;29;20280;-74
2022/09/24 10:00:48;;;;;;;19.17;18.08;;;;;;;15.92;94.56;96391.03;4961359;28;20184;-73
2022/09/24 10:03:45;;;;;;;38.78;36.53;;;;;;;16.13;93.09;96389.91;4974470;28;20193;-73
2022/09/24 10:06:32;;;;;;;73.20;69.05;;;;;;;15.98;94.10;96389.97;4974927;28;20172;-74
2022/09/24 10:09:18;;;;;;;79.85;75.38;;;;;;;16.31;93.33;96386.66;4957281;28;20179;-75
2022/09/24 10:11:44;;;;;;;110.05;104.00;;;;;;;16.46;91.70;96383.13;4974433;28;20211;-75
2022/09/24 10:14:13;;;;;;;108.70;102.77;;;;;;;16.32;93.78;96387.44;4974657;28;20231;-71
2022/09/24 10:16:42;;;;;;;44.50;42.07;;;;;;;16.13;95.12;96384.63;4974504;28;20563;-71
2022/09/24 10:19:20;;;;;;;27.98;26.17;;;;;;;16.25;96.25;96386.94;4956257;28;20220;-72
2022/09/24 10:21:46;;;;;;;17.25;16.15;;;;;;;16.08;98.02;96382.78;4974186;28;20172;-71
2022/09/24 10:24:17;;;;;;;18.67;17.58;;;;;;;16.18;96.98;96377.44;4955662;28;20656;-72
2022/09/24 10:26:45;;;;;;;17.40;16.40;;;;;;;15.94;99.49;96378.38;4975351;28;20180;-72
2022/09/24 10:32:25;;;;;;;21.42;20.15;;;;;;;16.30;96.23;96381.63;4973284;28;20238;-72
2022/09/24 10:34:55;;;;;;;19.23;18.23;;;;;;;16.19;96.34;96379.03;4973814;28;20193;-71
2022/09/24 10:37:20;;;;;;;18.60;17.42;;;;;;;16.16;96.91;96376.16;4973545;28;20204;-71
2022/09/24 10:40:11;;;;;;;18.45;17.45;;;;;;;16.31;95.86;96385.84;4974075;28;20312;-72
2022/09/24 10:42:37;;;;;;;20.05;18.73;;;;;;;16.22;96.74;96378.47;4974378;28;20169;-73
2022/09/24 10:45:03;;;;;;;20.40;19.17;;;;;;;16.29;95.32;96380.03;4973651;28;20184;-73
2022/09/24 10:47:47;;;;;;;16.45;15.57;;;;;;;16.27;96.42;96379.53;4956373;28;20189;-72
2022/09/24 10:50:36;;;;;;;17.17;16.27;;;;;;;16.24;99.46;96380.88;4973626;28;20199;-73
2022/09/24 10:53:31;;;;;;;15.45;14.57;;;;;;;16.16;100.00;96394.66;4969115;28;20176;-73
2022/09/24 10:56:10;;;;;;;12.80;12.10;;;;;;;15.90;100.00;96386.03;4957508;28;20204;-69
2022/09/24 10:58:39;;;;;;;41.25;38.97;;;;;;;15.72;100.00;96394.53;4973362;28;20196;-70
2022/09/24 11:01:21;;;;;;;27.80;26.33;;;;;;;15.72;100.00;96386.59;4955371;28;20251;-71
2022/09/24 11:04:18;;;;;;;15.00;14.05;;;;;;;15.40;100.00;96392.97;4973367;28;20657;-70
2022/09/24 11:07:29;;;;;;;25.60;23.93;;;;;;;14.72;100.00;96394.28;4966731;28;20193;-70
2022/09/24 11:10:19;;;;;;;24.27;22.73;;;;;;;14.66;100.00;96399.81;4946113;28;20746;-72
2022/09/24 11:13:03;;;;;;;30.27;28.43;;;;;;;14.48;100.00;96388.75;4954628;28;20224;-72
2022/09/24 11:15:59;;;;;;;26.43;24.53;;;;;;;14.41;100.00;96390.81;4972954;28;20247;-73
2022/09/24 11:18:56;;;;;;;41.90;39.40;;;;;;;14.31;100.00;96384.69;4967716;28;20256;-73
2022/09/24 11:21:31;;;;;;;39.17;36.87;;;;;;;14.19;100.00;96381.50;4973193;28;20267;-73
2022/09/24 11:24:33;;;;;;;58.43;55.10;;;;;;;14.35;100.00;96391.03;4972348;28;20184;-73
2022/09/24 11:27:07;;;;;;;63.17;59.60;;;;;;;14.24;100.00;96379.66;4973508;28;20180;-74
2022/09/24 11:30:05;;;;;;;45.00;42.60;;;;;;;14.32;100.00;96378.38;4972606;28;20177;-74
2022/09/24 11:32:38;;;;;;;41.73;39.13;;;;;;;14.36;100.00;96379.44;4971962;28;20232;-73
2022/09/24 11:35:51;;;;;;;36.73;34.40;;;;;;;14.52;100.00;96373.19;4974197;28;20183;-73
2022/09/24 11:38:43;;;;;;;43.83;41.43;;;;;;;14.62;100.00;96377.66;4942966;28;20246;-74